Edson, Canada
Current Conditions -  °F | °C
As of 6:00 AM on Tuesday 21 Oct 2014 (Local Time) from CYET Reporting Station
Overcast Overcast  
Wind Chill: 45°   Ceiling: 9500
Heat Index: 45°   Visibility: 9mi
Dew Point: 37°   Wind: 3mph
Humidity: 76%   Direction: 250°WSW
Pressure: 29.62"   Gusts: NA
Location:  53.58°N, 116.43°W
Report Text: CYET 211200Z AUTO 25003KT 9SM BKN095 OVC110 07/03 A2962 RMK SLP037 DENSITY ALT 3100FT
Loading
Personal Weather Stations






























Interactive Weather Map
Tropical Storm Tracking
New forecast layout! Learn more

10-Day Weather Forecast

Advertisements
Track Severe Weather on mobile